createdAt,value
2019-06-26T00:00:28.179Z,6.78
2019-06-26T00:03:00.463Z,7.33
2019-06-26T00:05:30.181Z,7.72
2019-06-26T00:08:02.537Z,6.97
2019-06-26T00:10:31.649Z,7.47
2019-06-26T00:13:00.667Z,7.62
2019-06-26T00:15:33.051Z,7.10
2019-06-26T00:18:02.010Z,7.60
2019-06-26T00:20:31.095Z,6.87
2019-06-26T00:23:01.404Z,8.60
2019-06-26T00:25:31.610Z,8.85
2019-06-26T00:28:04.277Z,8.55
2019-06-26T00:30:36.973Z,7.90
2019-06-26T00:33:06.730Z,7.50
2019-06-26T00:35:39.728Z,8.08
2019-06-26T00:38:10.787Z,7.90
2019-06-26T00:40:40.993Z,7.92
2019-06-26T00:43:10.028Z,8.23
2019-06-26T00:45:39.697Z,8.13
2019-06-26T00:48:14.395Z,7.70
2019-06-26T00:50:43.439Z,7.42
2019-06-26T00:53:14.320Z,8.23
2019-06-26T00:55:47.242Z,8.15
2019-06-26T00:58:20.018Z,8.35
2019-06-26T01:00:52.931Z,8.83
2019-06-26T01:03:22.295Z,8.10
2019-06-26T01:05:57.554Z,8.58
2019-06-26T01:08:26.582Z,8.08
2019-06-26T01:10:57.071Z,8.80
2019-06-26T01:13:29.995Z,8.55
2019-06-26T01:15:59.257Z,8.68
2019-06-26T01:18:28.266Z,8.05
2019-06-26T01:21:00.852Z,8.40
2019-06-26T01:26:21.672Z,8.08
2019-06-26T01:28:50.867Z,8.25
2019-06-26T01:31:20.771Z,7.97
2019-06-26T01:33:50.016Z,8.40
2019-06-26T01:36:20.236Z,8.95
2019-06-26T01:38:49.352Z,8.83
2019-06-26T01:41:22.168Z,7.83
2019-06-26T01:43:54.434Z,8.35
2019-06-26T01:46:23.564Z,9.20
2019-06-26T01:48:53.837Z,9.65
2019-06-26T01:51:23.032Z,8.63
2019-06-26T01:53:53.216Z,8.60
2019-06-26T01:56:23.597Z,8.93
2019-06-26T01:58:56.404Z,9.50
2019-06-26T02:01:26.870Z,9.83
2019-06-26T02:03:59.694Z,8.98
2019-06-26T02:06:29.209Z,9.83
2019-06-26T02:09:01.885Z,10.35
2019-06-26T02:11:32.850Z,10.23
2019-06-26T02:14:05.849Z,9.18
2019-06-26T02:16:36.117Z,8.93
2019-06-26T02:19:10.600Z,9.85
2019-06-26T02:21:43.527Z,11.20
2019-06-26T02:24:18.757Z,10.78
2019-06-26T02:26:48.637Z,10.03
2019-06-26T02:29:17.842Z,10.43
2019-06-26T02:31:48.134Z,10.00
2019-06-26T02:34:18.608Z,10.13
2019-06-26T02:36:49.352Z,10.30
2019-06-26T02:39:19.010Z,10.40
2019-06-26T02:41:52.922Z,10.38
2019-06-26T02:44:25.744Z,9.48
2019-06-26T02:47:13.485Z,8.95
2019-06-26T02:49:26.324Z,10.20
2019-06-26T02:51:55.576Z,10.10
2019-06-26T02:54:25.627Z,9.58
2019-06-26T02:56:54.929Z,10.38
2019-06-26T02:59:25.559Z,11.00
2019-06-26T03:01:54.795Z,10.28
2019-06-26T03:04:24.043Z,9.55
2019-06-26T03:06:53.212Z,9.73
2019-06-26T03:09:23.852Z,10.90
2019-06-26T03:11:53.018Z,10.95
2019-06-26T03:14:25.240Z,10.78
2019-06-26T03:16:55.927Z,10.85
2019-06-26T03:19:26.877Z,11.22
2019-06-26T03:21:57.512Z,11.90
2019-06-26T03:24:30.472Z,11.15
2019-06-26T03:27:00.869Z,11.55
2019-06-26T03:29:30.173Z,11.08
2019-06-26T03:32:02.497Z,10.13
2019-06-26T03:34:31.605Z,10.55
2019-06-26T03:37:03.531Z,9.80
2019-06-26T03:39:33.343Z,9.75
2019-06-26T03:42:02.982Z,10.60
2019-06-26T03:44:32.411Z,10.58
2019-06-26T03:47:02.226Z,10.30
2019-06-26T03:49:34.133Z,10.10
2019-06-26T03:52:07.931Z,9.13
2019-06-26T03:54:39.830Z,9.83
2019-06-26T03:57:09.687Z,9.15
2019-06-26T03:59:39.609Z,9.58
2019-06-26T04:02:09.507Z,9.50
2019-06-26T04:04:39.018Z,8.95
2019-06-26T04:07:11.509Z,9.43
2019-06-26T04:09:40.602Z,8.88
2019-06-26T04:12:12.765Z,8.43
2019-06-26T04:14:45.569Z,9.40
2019-06-26T04:17:15.646Z,8.98
2019-06-26T04:19:45.192Z,8.58
2019-06-26T04:22:14.806Z,8.58
2019-06-26T04:24:47.442Z,8.60
2019-06-26T04:27:16.512Z,8.43
2019-06-26T04:29:45.552Z,8.28
2019-06-26T04:32:15.579Z,7.75
2019-06-26T04:34:44.644Z,8.28
2019-06-26T04:37:13.743Z,8.08
2019-06-26T04:39:43.305Z,8.13
2019-06-26T04:42:13.280Z,8.00
2019-06-26T04:44:42.318Z,7.92
2019-06-26T04:47:17.077Z,7.70
2019-06-26T04:49:46.917Z,9.63
2019-06-26T04:52:16.979Z,8.73
2019-06-26T04:54:49.349Z,12.03
2019-06-26T04:57:20.187Z,12.10
2019-06-26T04:59:49.491Z,11.20
2019-06-26T05:02:20.558Z,11.70
2019-06-26T05:04:50.222Z,12.03
2019-06-26T05:07:19.307Z,12.03
2019-06-26T05:09:48.390Z,11.20
2019-06-26T05:12:17.513Z,10.23
2019-06-26T05:14:48.172Z,10.48
2019-06-26T05:17:17.269Z,11.25
2019-06-26T05:19:47.569Z,12.53
2019-06-26T05:22:17.268Z,12.60
2019-06-26T05:24:46.672Z,11.95
2019-06-26T05:27:16.000Z,12.33
2019-06-26T05:29:46.035Z,12.40
2019-06-26T05:32:16.674Z,12.85
2019-06-26T05:34:45.748Z,12.73
2019-06-26T05:37:18.119Z,12.43
2019-06-26T05:39:47.197Z,12.65
2019-06-26T05:42:16.258Z,14.38
2019-06-26T05:44:49.262Z,13.25
2019-06-26T05:47:23.251Z,13.38
2019-06-26T05:49:52.335Z,12.15
2019-06-26T05:52:22.459Z,13.13
2019-06-26T05:54:54.609Z,13.35
2019-06-26T05:57:23.714Z,15.28
2019-06-26T05:59:55.591Z,13.83
2019-06-26T06:02:24.659Z,13.88
2019-06-26T06:04:54.364Z,15.08
2019-06-26T06:07:23.541Z,15.00
2019-06-26T06:09:54.462Z,15.80
2019-06-26T06:12:23.571Z,14.03
2019-06-26T06:14:55.810Z,14.50
2019-06-26T06:17:28.661Z,15.90
2019-06-26T06:19:57.785Z,15.60
2019-06-26T06:22:29.022Z,15.60
2019-06-26T06:24:59.907Z,16.42
2019-06-26T06:27:29.755Z,15.68
2019-06-26T06:30:00.411Z,14.28
2019-06-26T06:32:30.826Z,14.75
2019-06-26T06:35:00.878Z,14.90
2019-06-26T06:37:30.920Z,15.15
2019-06-26T06:40:00.344Z,14.23
2019-06-26T06:42:29.601Z,14.35
2019-06-26T06:45:00.190Z,13.78
2019-06-26T06:47:29.336Z,14.63
2019-06-26T06:50:00.392Z,12.45
2019-06-26T06:52:32.767Z,13.05
2019-06-26T06:55:04.821Z,14.28
2019-06-26T06:57:33.899Z,14.50
2019-06-26T07:00:03.492Z,13.68
2019-06-26T07:02:33.974Z,13.90
2019-06-26T07:05:04.494Z,15.72
2019-06-26T07:07:35.159Z,15.18
2019-06-26T07:10:06.037Z,13.65
2019-06-26T07:12:35.062Z,15.00
2019-06-26T07:15:05.863Z,13.22
2019-06-26T07:17:35.265Z,14.13
2019-06-26T07:20:05.722Z,13.05
2019-06-26T07:22:38.423Z,14.28
2019-06-26T07:25:10.055Z,12.78
2019-06-26T07:27:39.366Z,11.15
2019-06-26T07:30:09.009Z,12.00
2019-06-26T07:32:38.207Z,11.15
2019-06-26T07:42:52.781Z,12.18
2019-06-26T07:45:24.148Z,11.93
2019-06-26T07:47:57.185Z,12.30
2019-06-26T07:50:26.250Z,11.97
2019-06-26T07:52:55.299Z,12.45
2019-06-26T07:55:24.435Z,11.73
2019-06-26T07:57:53.454Z,11.12
2019-06-26T08:00:24.186Z,11.50
2019-06-26T08:02:53.228Z,11.78
2019-06-26T08:05:23.640Z,10.40
2019-06-26T08:07:53.141Z,10.85
2019-06-26T08:10:28.419Z,10.60
2019-06-26T08:13:01.062Z,10.20
2019-06-26T08:15:31.111Z,11.03
2019-06-26T08:18:03.418Z,9.50
2019-06-26T08:20:32.533Z,10.40
2019-06-26T08:23:01.603Z,9.90
2019-06-26T08:25:31.275Z,10.08
2019-06-26T08:28:00.366Z,11.30
2019-06-26T08:30:29.479Z,10.58
2019-06-26T08:32:58.519Z,9.98
2019-06-26T08:35:27.598Z,10.95
2019-06-26T08:38:09.786Z,11.10
2019-06-26T08:40:28.798Z,9.90
2019-06-26T08:42:57.963Z,10.70
2019-06-26T08:45:28.809Z,10.23
2019-06-26T08:48:13.420Z,9.65
2019-06-26T08:50:30.071Z,9.65
2019-06-26T08:53:02.938Z,8.48
2019-06-26T08:55:35.504Z,8.03
2019-06-26T08:58:05.286Z,8.43
2019-06-26T09:00:34.366Z,7.95
2019-06-26T09:03:07.564Z,7.78
2019-06-26T09:05:47.438Z,6.35
2019-06-26T09:08:07.326Z,6.60
2019-06-26T09:10:36.515Z,6.95
2019-06-26T09:13:11.234Z,6.12
2019-06-26T09:15:42.249Z,6.35
2019-06-26T09:18:12.311Z,6.08
2019-06-26T09:20:46.814Z,6.67
2019-06-26T09:23:17.422Z,6.22
2019-06-26T09:25:46.577Z,6.58
2019-06-26T09:28:16.013Z,6.37
2019-06-26T09:30:45.118Z,6.15
2019-06-26T09:33:20.410Z,6.80
2019-06-26T09:35:50.681Z,6.20
2019-06-26T09:38:19.725Z,5.90
2019-06-26T09:40:48.934Z,5.53
2019-06-26T09:43:18.447Z,6.37
2019-06-26T09:45:51.132Z,6.47
2019-06-26T09:48:24.075Z,5.95
2019-06-26T09:50:56.602Z,5.70
2019-06-26T09:53:26.711Z,6.12
2019-06-26T09:55:55.748Z,5.90
2019-06-26T09:58:25.997Z,5.95
2019-06-26T10:00:55.126Z,6.10
2019-06-26T10:03:24.973Z,6.15
2019-06-26T10:05:55.926Z,6.92
2019-06-26T10:08:26.409Z,6.70
2019-06-26T10:10:55.858Z,6.25
2019-06-26T10:13:28.940Z,5.70
2019-06-26T10:16:00.703Z,5.37
2019-06-26T10:18:31.060Z,5.42
2019-06-26T10:21:03.811Z,6.28
2019-06-26T10:23:34.234Z,6.17
2019-06-26T10:26:03.937Z,5.67
2019-06-26T10:28:34.128Z,5.62
2019-06-26T10:31:07.124Z,4.87
2019-06-26T10:33:42.679Z,5.20
2019-06-26T10:36:12.219Z,4.50
2019-06-26T10:38:47.853Z,4.62
2019-06-26T10:41:24.051Z,4.47
2019-06-26T10:43:59.150Z,4.92
2019-06-26T10:46:31.747Z,5.10
2019-06-26T10:49:02.421Z,4.90
2019-06-26T10:51:35.536Z,5.25
2019-06-26T10:54:08.153Z,4.75
2019-06-26T10:56:37.286Z,5.67
2019-06-26T10:59:09.839Z,5.05
2019-06-26T11:01:39.030Z,5.72
2019-06-26T11:04:09.858Z,5.03
2019-06-26T11:06:42.038Z,4.97
2019-06-26T11:09:14.002Z,4.97
2019-06-26T11:11:44.186Z,4.97
2019-06-26T11:14:14.401Z,5.40
2019-06-26T11:16:43.461Z,4.53
2019-06-26T11:19:12.565Z,4.33
2019-06-26T11:21:45.347Z,4.75
2019-06-26T11:24:15.439Z,5.90
2019-06-26T11:26:49.194Z,5.53
2019-06-26T11:29:22.154Z,6.72
2019-06-26T11:31:52.306Z,5.70
2019-06-26T11:34:21.483Z,5.35
2019-06-26T11:37:03.619Z,5.55
2019-06-26T11:39:24.770Z,6.00
2019-06-26T11:41:57.539Z,6.22
2019-06-26T11:44:26.570Z,5.95
2019-06-26T11:47:00.218Z,6.80
2019-06-26T11:49:32.601Z,7.22
2019-06-26T11:52:01.789Z,8.10
2019-06-26T11:54:30.758Z,7.97
2019-06-26T11:57:01.403Z,7.47
2019-06-26T11:59:30.463Z,8.10
2019-06-26T12:02:00.426Z,7.72
2019-06-26T12:04:29.413Z,7.83
2019-06-26T12:06:59.564Z,9.03
2019-06-26T12:09:28.593Z,8.53
2019-06-26T12:11:57.651Z,8.85
2019-06-26T12:14:27.939Z,9.18
2019-06-26T12:17:02.507Z,8.33
2019-06-26T12:19:31.539Z,8.95
2019-06-26T12:22:04.165Z,10.23
2019-06-26T12:24:33.935Z,11.78
2019-06-26T12:27:03.073Z,10.68
2019-06-26T12:29:33.199Z,10.95
2019-06-26T12:32:09.283Z,10.65
2019-06-26T12:34:38.354Z,11.05
2019-06-26T12:37:07.931Z,12.78
2019-06-26T12:39:36.971Z,13.58
2019-06-26T12:42:07.940Z,12.28
2019-06-26T12:44:36.993Z,13.88
2019-06-26T12:47:11.566Z,16.15
2019-06-26T12:49:40.642Z,13.72
2019-06-26T12:52:16.813Z,15.25
2019-06-26T12:54:44.267Z,15.60
2019-06-26T12:57:19.270Z,14.50
2019-06-26T12:59:57.325Z,16.20
2019-06-26T13:02:22.021Z,16.62
2019-06-26T13:04:52.222Z,13.85
2019-06-26T13:07:21.300Z,14.98
2019-06-26T13:09:50.444Z,13.22
2019-06-26T13:12:22.433Z,14.73
2019-06-26T13:14:51.732Z,12.78
2019-06-26T13:17:21.116Z,13.18
2019-06-26T13:19:50.097Z,12.35
2019-06-26T13:22:25.927Z,12.07
2019-06-26T13:24:55.115Z,10.98
2019-06-26T13:27:25.454Z,10.48
2019-06-26T13:29:54.802Z,8.95
2019-06-26T13:32:25.343Z,8.35
2019-06-26T13:34:55.879Z,8.85
2019-06-26T13:37:24.907Z,8.65
2019-06-26T13:39:53.972Z,7.33
2019-06-26T13:42:26.490Z,6.72
2019-06-26T13:44:58.735Z,6.90
2019-06-26T13:47:27.939Z,8.50
2019-06-26T13:49:57.107Z,8.15
2019-06-26T13:52:29.810Z,8.43
2019-06-26T13:54:58.846Z,8.38
2019-06-26T13:57:28.332Z,9.13
2019-06-26T13:59:58.621Z,9.18
2019-06-26T14:02:28.346Z,8.05
2019-06-26T14:04:57.777Z,6.33
2019-06-26T14:07:26.872Z,6.15
2019-06-26T14:09:56.102Z,5.37
2019-06-26T14:12:25.327Z,5.35
2019-06-26T14:14:58.438Z,5.28
2019-06-26T14:17:30.626Z,5.28
2019-06-26T14:20:00.319Z,5.20
2019-06-26T14:22:32.448Z,5.35
2019-06-26T14:25:06.776Z,4.35
2019-06-26T14:27:35.845Z,4.47
2019-06-26T14:30:06.324Z,4.70
2019-06-26T14:32:35.442Z,5.03
2019-06-26T14:35:05.933Z,5.00
2019-06-26T14:37:35.075Z,5.05
2019-06-26T14:40:07.556Z,5.55
2019-06-26T14:42:38.019Z,5.17
2019-06-26T14:45:08.221Z,5.58
2019-06-26T14:47:37.258Z,5.00
2019-06-26T14:50:10.403Z,5.17
2019-06-26T14:52:39.465Z,5.83
2019-06-26T14:55:10.951Z,5.53
2019-06-26T14:57:40.418Z,5.30
2019-06-26T15:00:10.279Z,5.10
2019-06-26T15:02:40.126Z,5.67
2019-06-26T15:05:09.422Z,5.58
2019-06-26T15:07:38.442Z,5.30
2019-06-26T15:10:09.995Z,5.95
2019-06-26T15:12:44.958Z,5.22
2019-06-26T15:15:14.363Z,5.60
2019-06-26T15:20:22.027Z,5.87
2019-06-26T15:22:51.248Z,5.45
2019-06-26T15:25:22.235Z,5.60
2019-06-26T15:27:51.767Z,5.85
2019-06-26T15:30:22.772Z,5.70
2019-06-26T15:32:54.778Z,6.25
2019-06-26T15:35:23.932Z,6.30
2019-06-26T15:37:52.960Z,6.08
2019-06-26T15:40:23.127Z,6.05
2019-06-26T15:42:52.274Z,6.58
2019-06-26T15:45:21.501Z,7.47
2019-06-26T15:47:53.701Z,7.00
2019-06-26T15:50:23.326Z,6.85
2019-06-26T15:52:52.417Z,6.55
2019-06-26T15:55:27.939Z,6.53
2019-06-26T15:57:57.151Z,6.87
2019-06-26T16:00:26.979Z,7.50
2019-06-26T16:02:55.974Z,6.95
2019-06-26T16:07:59.787Z,7.10
2019-06-26T16:10:34.613Z,6.95
2019-06-26T16:13:05.606Z,6.87
2019-06-26T16:15:35.314Z,6.17
2019-06-26T16:18:07.250Z,6.47
2019-06-26T16:20:37.082Z,6.17
2019-06-26T16:23:06.242Z,6.00
2019-06-26T16:25:37.955Z,6.22
2019-06-26T16:28:08.559Z,5.25
2019-06-26T16:30:37.946Z,5.83
2019-06-26T16:33:08.887Z,6.08
2019-06-26T16:35:38.689Z,5.50
2019-06-26T16:38:07.761Z,5.53
2019-06-26T16:40:38.626Z,5.53
2019-06-26T16:43:08.386Z,5.42
2019-06-26T16:45:37.817Z,5.50
2019-06-26T16:48:08.133Z,5.17
2019-06-26T16:50:38.666Z,4.70
2019-06-26T16:53:08.298Z,4.47
2019-06-26T16:55:37.451Z,5.75
2019-06-26T16:58:06.479Z,5.17
2019-06-26T17:00:37.359Z,4.90
2019-06-26T17:03:06.394Z,5.75
2019-06-26T17:05:35.514Z,5.50
2019-06-26T17:08:04.625Z,5.00
2019-06-26T17:10:34.039Z,5.12
2019-06-26T17:13:09.260Z,5.20
2019-06-26T17:15:39.328Z,5.25
2019-06-26T17:18:13.879Z,5.67
2019-06-26T17:20:42.966Z,4.92
2019-06-26T17:23:11.986Z,4.58
2019-06-26T17:25:42.207Z,5.05
2019-06-26T17:28:14.554Z,4.87
2019-06-26T17:30:44.184Z,5.05
2019-06-26T17:33:13.199Z,4.95
2019-06-26T17:35:42.362Z,4.58
2019-06-26T17:38:11.495Z,5.33
2019-06-26T17:40:40.578Z,5.33
2019-06-26T17:43:12.618Z,5.12
2019-06-26T17:45:42.558Z,5.47
2019-06-26T17:48:12.868Z,5.05
2019-06-26T17:50:42.974Z,5.78
2019-06-26T17:53:21.078Z,5.37
2019-06-26T17:55:43.619Z,4.62
2019-06-26T17:58:13.727Z,5.37
2019-06-26T18:00:43.804Z,5.25
2019-06-26T18:03:12.917Z,5.30
2019-06-26T18:05:42.480Z,5.17
2019-06-26T18:08:15.274Z,5.92
2019-06-26T18:10:45.284Z,5.62
2019-06-26T18:13:18.083Z,5.22
2019-06-26T18:15:47.246Z,4.97
2019-06-26T18:18:18.425Z,5.37
2019-06-26T18:20:53.103Z,5.47
2019-06-26T18:23:36.768Z,5.70
2019-06-26T18:28:30.221Z,5.65
2019-06-26T18:31:00.042Z,5.50
2019-06-26T18:33:35.488Z,5.22
2019-06-26T18:36:10.278Z,5.53
2019-06-26T18:38:39.554Z,5.33
2019-06-26T18:41:09.504Z,5.72
2019-06-26T18:43:42.925Z,5.45
2019-06-26T18:46:12.478Z,5.00
2019-06-26T18:48:42.535Z,5.15
2019-06-26T18:51:13.246Z,4.62
2019-06-26T18:53:53.678Z,4.83
2019-06-26T18:56:17.186Z,4.62
2019-06-26T18:58:46.276Z,4.33
2019-06-26T19:01:15.424Z,4.50
2019-06-26T19:03:45.333Z,4.30
2019-06-26T19:06:14.975Z,5.28
2019-06-26T19:08:45.235Z,4.22
2019-06-26T19:11:14.416Z,4.45
2019-06-26T19:13:43.599Z,3.95
2019-06-26T19:16:12.716Z,3.42
2019-06-26T19:18:43.061Z,3.80
2019-06-26T19:21:12.105Z,3.95
2019-06-26T19:23:41.218Z,3.85
2019-06-26T19:26:10.350Z,3.70
2019-06-26T19:28:40.264Z,3.87
2019-06-26T19:31:18.500Z,3.60
2019-06-26T19:33:48.994Z,3.58
2019-06-26T19:36:18.043Z,3.80
2019-06-26T19:38:47.174Z,3.40
2019-06-26T19:41:16.330Z,4.35
2019-06-26T19:43:48.580Z,4.62
2019-06-26T19:46:20.259Z,4.33
2019-06-26T19:48:49.552Z,4.62
2019-06-26T19:51:19.149Z,4.17
2019-06-26T19:53:48.223Z,4.70
2019-06-26T19:56:20.241Z,4.22
2019-06-26T19:58:48.790Z,4.00
2019-06-26T20:01:19.579Z,3.90
2019-06-26T20:03:51.319Z,3.60
2019-06-26T20:06:20.497Z,4.45
2019-06-26T20:08:56.218Z,4.28
2019-06-26T20:11:23.545Z,4.12
2019-06-26T20:13:52.584Z,4.15
2019-06-26T20:16:21.737Z,4.12
2019-06-26T20:18:54.795Z,4.33
2019-06-26T20:21:27.056Z,4.40
2019-06-26T20:23:57.055Z,4.47
2019-06-26T20:26:26.132Z,5.00
2019-06-26T20:28:56.243Z,5.03
2019-06-26T20:31:25.287Z,5.17
2019-06-26T20:33:54.410Z,4.58
2019-06-26T20:36:26.588Z,4.60
2019-06-26T20:38:55.691Z,4.30
2019-06-26T20:41:24.771Z,4.12
2019-06-26T20:43:53.828Z,4.45
2019-06-26T20:46:24.148Z,4.37
2019-06-26T20:48:53.267Z,4.20
2019-06-26T20:51:23.399Z,4.55
2019-06-26T20:53:52.563Z,4.70
2019-06-26T20:56:21.614Z,5.03
2019-06-26T20:58:52.596Z,3.83
2019-06-26T21:01:25.106Z,4.28
2019-06-26T21:03:54.168Z,4.22
2019-06-26T21:06:23.230Z,3.72
2019-06-26T21:08:52.307Z,4.62
2019-06-26T21:11:24.317Z,4.53
2019-06-26T21:13:53.769Z,4.67
2019-06-26T21:16:22.819Z,4.42
2019-06-26T21:18:55.146Z,4.75
2019-06-26T21:21:26.002Z,5.45
2019-06-26T21:23:56.061Z,5.50
2019-06-26T21:26:25.228Z,5.97
2019-06-26T21:29:00.665Z,5.72
2019-06-26T21:31:28.125Z,5.22
2019-06-26T21:33:57.929Z,5.62
2019-06-26T21:36:26.987Z,5.28
2019-06-26T21:38:59.158Z,5.75
2019-06-26T21:41:29.060Z,5.12
2019-06-26T21:43:58.715Z,5.37
2019-06-26T21:46:28.262Z,4.80
2019-06-26T21:48:57.451Z,4.15
2019-06-26T21:51:27.766Z,3.70
2019-06-26T21:53:56.826Z,4.40
2019-06-26T21:56:27.549Z,3.65
2019-06-26T21:58:59.570Z,3.27
2019-06-26T22:01:30.466Z,3.60
2019-06-26T22:04:03.523Z,3.27
2019-06-26T22:06:34.421Z,3.17
2019-06-26T22:09:06.000Z,2.67
2019-06-26T22:11:38.434Z,2.98
2019-06-26T22:14:08.447Z,3.15
2019-06-26T22:16:37.593Z,3.27
2019-06-26T22:19:08.520Z,3.77
2019-06-26T22:21:37.755Z,2.45
2019-06-26T22:24:12.854Z,2.77
2019-06-26T22:26:42.249Z,3.60
2019-06-26T22:29:11.832Z,2.70
2019-06-26T22:31:40.864Z,2.80
2019-06-26T22:34:11.603Z,2.87
2019-06-26T22:36:51.075Z,2.70
2019-06-26T22:39:14.652Z,3.20
2019-06-26T22:41:43.939Z,3.40
2019-06-26T22:44:17.687Z,2.70
2019-06-26T22:46:47.960Z,3.53
2019-06-26T22:49:20.102Z,2.87
2019-06-26T22:51:49.304Z,3.13
2019-06-26T22:54:19.907Z,3.10
2019-06-26T22:56:49.184Z,2.90
2019-06-26T22:59:24.231Z,2.87
2019-06-26T23:01:57.021Z,3.50
2019-06-26T23:04:26.129Z,3.00
2019-06-26T23:06:59.011Z,2.90
2019-06-26T23:09:32.982Z,3.90
2019-06-26T23:12:03.281Z,4.20
2019-06-26T23:14:33.900Z,4.90
2019-06-26T23:17:03.994Z,4.73
2019-06-26T23:19:37.333Z,5.10
2019-06-26T23:22:06.880Z,4.60
2019-06-26T23:24:37.542Z,5.00
2019-06-26T23:27:07.324Z,5.80
2019-06-26T23:29:38.270Z,5.23
2019-06-26T23:32:07.606Z,6.13
2019-06-26T23:34:36.832Z,6.20
2019-06-26T23:37:05.876Z,5.73
2019-06-26T23:39:37.334Z,6.30
2019-06-26T23:42:06.485Z,6.97
2019-06-26T23:44:39.131Z,6.33
2019-06-26T23:47:08.195Z,6.50
2019-06-26T23:49:39.863Z,7.17
2019-06-26T23:52:08.947Z,6.90
2019-06-26T23:54:39.803Z,7.43
2019-06-26T23:57:09.332Z,6.87
2019-06-26T23:59:41.579Z,6.83
